Time;durP1;ratioP1;P1;durP2;ratioP2;P2;SDS_P1;SDS_P2;PMS_P1;PMS_P2;Temp;Humidity;BMP_temperature;BMP_pressure;BME280_temperature;BME280_humidity;BME280_pressure;Samples;Min_cycle;Max_cycle;Signal;HPM_P1;HPM_P2
2021/07/02 00:02:05;;;;;;;1.05;0.65;;;;;;;21.51;58.58;99591.72;4493672;32;100664;-85
2021/07/02 00:04:44;;;;;;;1.12;0.80;;;;;;;21.58;59.08;99594.97;4493879;32;89654;-85
2021/07/02 00:07:23;;;;;;;1.33;0.50;;;;;;;21.69;57.99;99587.34;4493886;32;86643;-85
2021/07/02 00:10:03;;;;;;;2.67;0.60;;;;;;;21.66;58.47;99592.78;4508316;31;88688;-86
2021/07/02 00:12:42;;;;;;;0.73;0.50;;;;;;;21.77;57.72;99589.63;4493554;32;95440;-85
2021/07/02 00:15:20;;;;;;;1.60;0.70;;;;;;;21.70;58.98;99589.06;4493710;32;92904;-84
2021/07/02 00:17:59;;;;;;;1.23;0.50;;;;;;;21.77;58.90;99595.78;4461689;31;1091651;-83
2021/07/02 00:20:38;;;;;;;2.42;0.70;;;;;;;21.61;57.28;99589.50;4493568;32;91225;-84
2021/07/02 00:23:16;;;;;;;0.90;0.55;;;;;;;21.60;57.19;99590.44;4492118;32;106645;-83
2021/07/02 00:25:55;;;;;;;0.70;0.50;;;;;;;21.59;57.22;99584.28;4492497;31;90943;-84
2021/07/02 00:28:33;;;;;;;2.05;0.82;;;;;;;21.66;57.43;99590.13;4492356;31;138387;-84
2021/07/02 00:31:12;;;;;;;2.15;0.50;;;;;;;21.78;57.74;99589.53;4493742;31;92587;-84
2021/07/02 00:33:51;;;;;;;1.37;0.50;;;;;;;21.77;58.10;99585.19;4493624;32;92584;-83
2021/07/02 00:36:29;;;;;;;1.10;0.52;;;;;;;21.93;56.78;99590.59;4493685;32;93714;-83
2021/07/02 00:39:09;;;;;;;1.08;0.68;;;;;;;22.00;56.46;99586.72;4492286;32;94276;-84
2021/07/02 00:41:47;;;;;;;1.48;0.50;;;;;;;21.96;57.28;99588.69;4493831;31;91346;-84
2021/07/02 00:44:43;;;;;;;0.88;0.60;;;;;;;21.97;57.12;99585.09;4493782;32;88272;-84
2021/07/02 00:47:22;;;;;;;1.10;0.50;;;;;;;21.85;56.78;99590.97;4471509;32;794761;-83
2021/07/02 00:50:00;;;;;;;0.55;0.55;;;;;;;22.01;56.35;99586.62;4492379;32;96590;-83
2021/07/02 00:52:39;;;;;;;1.85;0.65;;;;;;;21.60;57.23;99587.78;4492690;32;92068;-84
2021/07/02 00:55:19;;;;;;;0.70;0.62;;;;;;;21.97;56.36;99581.56;4493592;32;93389;-83
2021/07/02 00:57:58;;;;;;;1.48;0.40;;;;;;;21.99;56.46;99585.84;4492320;32;96297;-83
2021/07/02 01:00:38;;;;;;;2.60;0.70;;;;;;;21.76;56.56;99593.19;4492384;31;91952;-84
2021/07/02 01:03:17;;;;;;;1.05;0.57;;;;;;;21.89;56.21;99595.22;4493357;31;104053;-84
2021/07/02 01:05:57;;;;;;;2.15;0.50;;;;;;;21.50;56.91;99587.38;4492448;32;91519;-83
2021/07/02 01:08:35;;;;;;;0.70;0.60;;;;;;;21.91;56.09;99598.63;4492307;31;90879;-83
2021/07/02 01:11:14;;;;;;;0.52;0.43;;;;;;;21.86;55.77;99595.34;4492479;32;91909;-83
2021/07/02 01:13:52;;;;;;;0.65;0.50;;;;;;;21.89;55.67;99583.75;4492418;32;91444;-83
2021/07/02 01:16:31;;;;;;;1.70;0.40;;;;;;;21.77;55.09;99582.53;4493605;32;93892;-83
2021/07/02 01:19:10;;;;;;;0.70;0.50;;;;;;;21.61;56.52;99583.38;4492642;32;87370;-83
2021/07/02 01:21:48;;;;;;;0.60;0.50;;;;;;;21.57;55.96;99588.78;4492567;32;89070;-83
2021/07/02 01:24:27;;;;;;;0.73;0.40;;;;;;;21.55;55.80;99585.38;4525353;31;111947;-83
2021/07/02 01:27:06;;;;;;;1.33;0.70;;;;;;;21.63;56.21;99581.50;4493165;32;90019;-83
2021/07/02 01:29:44;;;;;;;0.30;0.30;;;;;;;21.28;56.61;99580.50;4491045;31;154188;-82
2021/07/02 01:32:23;;;;;;;0.98;0.57;;;;;;;21.52;56.63;99579.34;4494112;31;89386;-83
2021/07/02 01:35:02;;;;;;;0.73;0.55;;;;;;;21.63;55.50;99577.06;4493837;31;91206;-84
2021/07/02 01:37:40;;;;;;;0.68;0.50;;;;;;;21.53;56.50;99578.44;4486533;31;288019;-83
2021/07/02 01:40:19;;;;;;;1.00;0.50;;;;;;;21.58;56.45;99576.44;4493800;32;87471;-82
2021/07/02 01:43:01;;;;;;;0.88;0.57;;;;;;;21.59;56.44;99576.34;4492530;31;85447;-83
2021/07/02 01:45:41;;;;;;;2.22;0.65;;;;;;;21.57;56.33;99569.41;4492371;32;98338;-83
2021/07/02 01:48:21;;;;;;;0.40;0.40;;;;;;;21.64;56.31;99568.19;4492689;31;86503;-85
2021/07/02 01:51:00;;;;;;;0.90;0.50;;;;;;;21.56;56.82;99565.06;4492436;32;90744;-83
2021/07/02 01:53:38;;;;;;;0.50;0.50;;;;;;;21.54;56.54;99572.19;4493571;31;97009;-85
2021/07/02 01:56:17;;;;;;;0.62;0.55;;;;;;;21.62;55.96;99569.19;4493275;32;100263;-85
2021/07/02 01:58:56;;;;;;;0.95;0.57;;;;;;;21.66;56.05;99574.25;4492518;32;88860;-84
2021/07/02 02:01:34;;;;;;;1.17;0.73;;;;;;;21.56;56.02;99571.19;4493188;32;108054;-82
2021/07/02 02:04:13;;;;;;;0.70;0.55;;;;;;;21.38;55.56;99572.09;4492244;31;97899;-82
2021/07/02 02:06:52;;;;;;;0.80;0.80;;;;;;;21.51;56.21;99564.44;4492716;32;88686;-82
2021/07/02 02:09:30;;;;;;;2.42;0.60;;;;;;;21.29;56.20;99569.03;4492292;31;91635;-83
2021/07/02 02:12:09;;;;;;;1.33;0.70;;;;;;;21.26;56.27;99571.81;4492159;32;98794;-84
2021/07/02 02:14:49;;;;;;;1.23;0.50;;;;;;;21.34;56.60;99573.16;4493824;32;90278;-83
2021/07/02 02:17:28;;;;;;;2.75;0.60;;;;;;;21.34;56.30;99574.94;4492121;32;99011;-82
2021/07/02 02:20:08;;;;;;;0.70;0.60;;;;;;;21.22;56.25;99570.25;4493830;31;87858;-83
2021/07/02 02:22:45;;;;;;;1.73;0.60;;;;;;;21.32;56.43;99572.34;4493490;31;99666;-84
2021/07/02 02:25:24;;;;;;;1.25;0.70;;;;;;;20.96;57.09;99573.19;4492126;32;110373;-83
2021/07/02 02:28:03;;;;;;;0.85;0.62;;;;;;;21.30;56.54;99573.38;4493823;32;88567;-84
2021/07/02 02:30:41;;;;;;;1.30;0.70;;;;;;;21.29;56.87;99561.94;4488778;31;212212;-82
2021/07/02 02:33:20;;;;;;;4.75;0.70;;;;;;;21.25;56.22;99570.09;4492385;32;94438;-83
2021/07/02 02:35:58;;;;;;;0.60;0.60;;;;;;;21.22;57.16;99571.09;4493315;32;98691;-83
2021/07/02 02:38:37;;;;;;;0.50;0.50;;;;;;;21.31;56.47;99567.16;4492411;31;91743;-84
2021/07/02 02:41:16;;;;;;;0.98;0.90;;;;;;;21.36;56.42;99573.09;4477994;32;92443;-83
2021/07/02 02:43:54;;;;;;;1.00;0.80;;;;;;;21.40;55.45;99575.50;4492289;32;94221;-83
2021/07/02 02:46:34;;;;;;;1.33;0.77;;;;;;;21.26;55.94;99567.37;4492524;32;89527;-82
2021/07/02 02:49:12;;;;;;;1.02;0.80;;;;;;;20.85;56.72;99571.91;4493832;32;88618;-83
2021/07/02 02:51:51;;;;;;;3.35;1.00;;;;;;;21.22;56.15;99572.88;4493915;32;93724;-82
2021/07/02 02:54:29;;;;;;;1.15;0.70;;;;;;;21.25;56.41;99570.09;4493500;32;101856;-83
2021/07/02 02:57:08;;;;;;;1.17;0.80;;;;;;;21.25;56.83;99572.75;4492481;31;89389;-83
2021/07/02 02:59:48;;;;;;;2.58;0.80;;;;;;;21.24;56.73;99573.66;4493108;32;113482;-82
2021/07/02 03:02:26;;;;;;;0.80;0.68;;;;;;;21.15;56.76;99576.75;4492978;32;120561;-82
2021/07/02 03:05:06;;;;;;;1.33;0.95;;;;;;;21.29;56.65;99572.53;4492516;32;87405;-83
2021/07/02 03:07:44;;;;;;;2.25;1.02;;;;;;;21.26;56.86;99570.00;4479109;32;98169;-83
2021/07/02 03:10:38;;;;;;;3.25;1.00;;;;;;;21.36;57.04;99573.09;4492420;32;91930;-83
2021/07/02 03:13:17;;;;;;;1.52;1.00;;;;;;;21.45;55.63;99577.94;4491976;32;105605;-83
2021/07/02 03:15:57;;;;;;;0.82;0.60;;;;;;;21.52;55.46;99569.63;4493692;32;92724;-84
2021/07/02 03:18:38;;;;;;;2.15;0.90;;;;;;;21.14;56.33;99562.66;4492678;32;88725;-83
2021/07/02 03:21:16;;;;;;;1.85;0.90;;;;;;;21.43;55.85;99575.38;4492219;32;96705;-84
2021/07/02 03:23:55;;;;;;;0.95;0.85;;;;;;;21.37;56.18;99572.16;4493632;32;91083;-82
2021/07/02 03:26:34;;;;;;;2.40;1.20;;;;;;;21.26;55.99;99574.44;4525664;31;89786;-83
2021/07/02 03:29:12;;;;;;;2.33;0.90;;;;;;;21.25;56.52;99565.66;4493616;32;95984;-83
2021/07/02 03:31:51;;;;;;;1.60;1.05;;;;;;;21.26;55.99;99571.81;4492296;32;139178;-82
2021/07/02 03:34:29;;;;;;;1.83;0.90;;;;;;;21.26;56.15;99569.16;4492627;32;87457;-83
2021/07/02 03:37:08;;;;;;;2.67;0.90;;;;;;;20.90;56.40;99567.25;4492356;32;93428;-84
2021/07/02 03:39:47;;;;;;;1.52;0.80;;;;;;;21.27;56.12;99570.88;4493651;32;96299;-83
2021/07/02 03:42:25;;;;;;;1.27;0.70;;;;;;;21.22;55.63;99572.88;4493378;32;108039;-82
2021/07/02 03:45:06;;;;;;;1.60;0.70;;;;;;;21.20;56.05;99569.47;4492647;31;86749;-82
2021/07/02 03:47:44;;;;;;;1.33;0.70;;;;;;;21.26;56.12;99569.16;4493976;31;84823;-83
2021/07/02 03:50:24;;;;;;;1.27;0.82;;;;;;;21.43;55.63;99575.38;4492057;32;102078;-82
2021/07/02 03:53:03;;;;;;;1.27;0.80;;;;;;;21.36;55.96;99567.78;4493720;32;91537;-82
2021/07/02 03:55:45;;;;;;;1.20;1.00;;;;;;;21.50;55.28;99575.94;4492370;31;92275;-81
2021/07/02 03:58:23;;;;;;;1.75;1.08;;;;;;;21.24;55.76;99573.66;4462112;31;1112555;-83
2021/07/02 04:01:05;;;;;;;2.42;0.98;;;;;;;21.43;55.56;99577.16;4462827;31;1089302;-82
2021/07/02 04:03:43;;;;;;;1.42;1.05;;;;;;;21.61;55.44;99580.72;4493405;32;103531;-82
2021/07/02 04:06:21;;;;;;;1.45;0.90;;;;;;;21.36;55.66;99573.94;4493853;32;88692;-81
2021/07/02 04:09:00;;;;;;;1.52;0.82;;;;;;;21.01;56.26;99582.66;4494010;31;87899;-83
2021/07/02 04:11:39;;;;;;;1.23;0.80;;;;;;;21.43;55.35;99571.88;4493737;31;86789;-81
2021/07/02 04:14:17;;;;;;;2.12;1.00;;;;;;;21.46;54.88;99574.37;4492580;31;84872;-83
2021/07/02 04:16:56;;;;;;;1.62;1.12;;;;;;;21.47;54.87;99574.28;4493742;31;91030;-83
2021/07/02 04:19:36;;;;;;;6.85;1.00;;;;;;;21.55;55.53;99584.50;4493706;31;92743;-82
2021/07/02 04:22:13;;;;;;;2.00;1.15;;;;;;;21.49;55.79;99582.13;4493208;32;103332;-82
2021/07/02 04:24:52;;;;;;;2.00;0.80;;;;;;;21.62;55.36;99583.28;4493774;31;91147;-83
2021/07/02 04:27:31;;;;;;;1.37;1.27;;;;;;;21.64;54.95;99584.06;4492242;32;98357;-82
2021/07/02 04:30:11;;;;;;;1.33;0.90;;;;;;;21.60;55.26;99582.50;4493704;32;90451;-82
2021/07/02 04:32:49;;;;;;;2.62;1.00;;;;;;;21.62;55.34;99593.88;4491806;32;158430;-81
2021/07/02 04:35:32;;;;;;;2.12;1.10;;;;;;;21.69;55.47;99584.69;4492473;32;91422;-81
2021/07/02 04:38:10;;;;;;;1.05;0.95;;;;;;;21.74;55.54;99576.53;4493410;31;106488;-81
2021/07/02 04:40:49;;;;;;;2.47;1.10;;;;;;;21.74;55.34;99577.38;4493473;31;96879;-81
2021/07/02 04:43:31;;;;;;;1.40;1.25;;;;;;;21.78;55.50;99570.12;4492488;31;90108;-81
2021/07/02 04:46:10;;;;;;;3.53;1.17;;;;;;;21.86;55.96;99576.81;4493787;32;91605;-82
2021/07/02 04:48:53;;;;;;;1.30;1.00;;;;;;;21.52;56.56;99584.66;4493811;32;89160;-81
2021/07/02 04:51:32;;;;;;;1.95;1.02;;;;;;;21.87;54.91;99575.88;4492223;31;96149;-81
2021/07/02 04:54:10;;;;;;;5.20;1.25;;;;;;;21.83;55.93;99574.28;4493275;31;108370;-81
2021/07/02 04:56:50;;;;;;;1.60;1.20;;;;;;;21.93;54.89;99575.59;4492375;32;89223;-83
2021/07/02 04:59:31;;;;;;;2.97;1.10;;;;;;;21.65;55.67;99580.50;4493812;32;89773;-81
2021/07/02 05:02:08;;;;;;;1.42;0.98;;;;;;;21.71;56.10;99585.47;4492307;31;93811;-82
2021/07/02 05:04:51;;;;;;;3.08;1.45;;;;;;;21.77;55.69;99590.47;4493783;32;92609;-81
2021/07/02 05:07:30;;;;;;;3.42;1.25;;;;;;;21.73;55.42;99594.19;4493461;31;103562;-82
2021/07/02 05:10:07;;;;;;;1.50;1.10;;;;;;;21.85;55.23;99601.56;4492479;31;88694;-82
2021/07/02 05:12:46;;;;;;;1.83;1.10;;;;;;;22.01;54.29;99605.16;4493624;31;92029;-83
2021/07/02 05:15:24;;;;;;;1.35;1.02;;;;;;;22.13;57.47;99607.22;4492437;32;89085;-82
2021/07/02 05:18:03;;;;;;;2.47;1.25;;;;;;;22.27;56.12;99608.31;4493331;31;94734;-81
2021/07/02 05:20:45;;;;;;;4.12;1.48;;;;;;;22.41;55.98;99604.03;4492431;32;92396;-80
2021/07/02 05:23:23;;;;;;;1.62;1.30;;;;;;;22.80;53.75;99611.72;4493810;32;89451;-81
2021/07/02 05:26:02;;;;;;;1.67;1.20;;;;;;;23.03;51.53;99608.72;4492259;32;87263;-80
2021/07/02 05:28:40;;;;;;;3.35;1.00;;;;;;;23.10;52.86;99620.72;4493792;32;86581;-81
2021/07/02 05:31:19;;;;;;;2.97;1.00;;;;;;;23.27;52.25;99606.53;4495146;32;92224;-80
2021/07/02 05:33:57;;;;;;;1.40;1.17;;;;;;;23.48;50.91;99610.69;4493476;32;165916;-81
2021/07/02 05:36:36;;;;;;;10.95;1.33;;;;;;;23.50;51.28;99609.66;4493846;32;88868;-82
2021/07/02 05:39:15;;;;;;;6.05;1.15;;;;;;;23.40;50.12;99620.84;4493184;32;105948;-81
2021/07/02 05:41:54;;;;;;;1.52;1.20;;;;;;;23.40;49.84;99611.09;4492114;31;95007;-81
2021/07/02 05:44:32;;;;;;;1.83;1.20;;;;;;;22.91;50.53;99606.72;4492619;32;85241;-83
2021/07/02 05:47:11;;;;;;;1.92;1.10;;;;;;;23.34;50.18;99614.03;4493746;31;86407;-83
2021/07/02 05:49:49;;;;;;;2.75;1.00;;;;;;;23.75;49.97;99625.03;4492566;31;87019;-81
2021/07/02 05:52:28;;;;;;;3.25;1.20;;;;;;;23.90;49.93;99618.88;4493369;32;100589;-81
2021/07/02 05:55:07;;;;;;;4.50;1.33;;;;;;;23.85;48.85;99626.25;4493444;31;89937;-82
2021/07/02 05:57:45;;;;;;;1.37;1.27;;;;;;;23.76;47.68;99615.28;4490651;31;103260;-80
2021/07/02 06:00:24;;;;;;;2.35;1.30;;;;;;;23.75;48.06;99629.53;4489665;32;102100;-80
2021/07/02 06:03:03;;;;;;;2.22;1.45;;;;;;;23.28;49.73;99630.31;4490012;31;89172;-80
2021/07/02 06:05:41;;;;;;;1.50;1.20;;;;;;;23.35;48.67;99634.38;4491359;32;94483;-83
2021/07/02 06:08:20;;;;;;;1.50;1.23;;;;;;;23.40;50.00;99631.47;4490801;32;93626;-81
2021/07/02 06:11:00;;;;;;;3.83;1.30;;;;;;;23.48;48.18;99637.22;4491961;32;88395;-80
2021/07/02 06:13:39;;;;;;;2.35;1.35;;;;;;;23.60;47.77;99633.03;4489717;31;90942;-79
2021/07/02 06:16:18;;;;;;;1.98;1.50;;;;;;;23.60;48.86;99639.22;4488349;32;90854;-81
2021/07/02 06:18:56;;;;;;;4.22;1.50;;;;;;;23.69;48.69;99648.44;4490899;32;89083;-82
2021/07/02 06:21:36;;;;;;;3.30;1.85;;;;;;;23.65;48.00;99649.56;4491524;32;92362;-82
2021/07/02 06:24:13;;;;;;;1.40;1.30;;;;;;;23.71;47.60;99643.91;4487261;31;89527;-80
2021/07/02 06:26:52;;;;;;;2.60;1.37;;;;;;;23.36;48.60;99648.50;4489247;31;96073;-79
2021/07/02 06:29:31;;;;;;;1.20;1.10;;;;;;;23.55;49.21;99649.22;4490437;31;93754;-80
2021/07/02 06:32:09;;;;;;;2.50;1.25;;;;;;;23.29;48.02;99645.31;4491170;31;88524;-80
2021/07/02 06:34:48;;;;;;;1.98;1.52;;;;;;;23.29;49.26;99655.94;4487416;31;221300;-80
2021/07/02 06:37:27;;;;;;;4.25;1.80;;;;;;;23.29;48.72;99658.59;4491677;32;111454;-81
2021/07/02 06:40:06;;;;;;;3.47;1.98;;;;;;;23.40;48.46;99666.84;4493694;32;91582;-81
2021/07/02 06:42:44;;;;;;;2.87;1.52;;;;;;;23.44;49.18;99665.72;4492130;32;100124;-83
2021/07/02 06:45:26;;;;;;;2.05;1.60;;;;;;;23.60;48.61;99668.41;4478087;32;86931;-83
2021/07/02 06:48:05;;;;;;;2.25;1.60;;;;;;;23.77;47.88;99656.84;4493628;32;92791;-82
2021/07/02 06:50:44;;;;;;;1.85;1.65;;;;;;;23.98;48.01;99675.09;4493292;32;108476;-82
2021/07/02 06:53:22;;;;;;;4.68;1.77;;;;;;;23.94;48.28;99662.91;4525165;31;50638;-81
2021/07/02 06:56:00;;;;;;;1.65;1.55;;;;;;;24.00;48.05;99678.50;4493785;32;90685;-82
2021/07/02 06:58:39;;;;;;;2.87;1.75;;;;;;;24.04;47.89;99677.38;4493890;32;87094;-82
2021/07/02 07:01:18;;;;;;;4.05;1.52;;;;;;;23.87;48.07;99677.47;4491387;32;94780;-81
2021/07/02 07:03:56;;;;;;;3.47;1.90;;;;;;;23.46;48.31;99678.94;4461849;32;99270;-82
2021/07/02 07:06:35;;;;;;;3.17;1.45;;;;;;;23.71;48.19;99678.41;4460154;32;88338;-82
2021/07/02 07:09:14;;;;;;;3.87;1.90;;;;;;;23.72;46.67;99687.72;4492718;31;99393;-82
2021/07/02 07:11:54;;;;;;;2.85;2.10;;;;;;;23.60;48.21;99688.78;4492795;32;96610;-82
2021/07/02 07:14:33;;;;;;;4.00;1.60;;;;;;;23.18;49.12;99689.25;4492677;32;91102;-81
2021/07/02 07:17:11;;;;;;;3.70;2.08;;;;;;;23.90;46.61;99681.75;4490538;32;91017;-81
2021/07/02 07:19:50;;;;;;;9.60;2.10;;;;;;;23.88;47.49;99676.53;4481691;32;94923;-83
2021/07/02 07:22:31;;;;;;;2.30;2.10;;;;;;;23.85;46.94;99673.19;4472509;32;128122;-81
2021/07/02 07:25:09;;;;;;;6.03;2.00;;;;;;;23.86;47.68;99670.47;4479328;32;99762;-81
2021/07/02 07:27:48;;;;;;;2.17;1.83;;;;;;;23.52;48.18;99667.97;4482271;32;90340;-82
2021/07/02 07:30:27;;;;;;;2.45;1.87;;;;;;;23.93;47.76;99668.31;4440311;32;1092286;-81
2021/07/02 07:33:05;;;;;;;2.80;1.75;;;;;;;24.23;47.21;99675.41;4481031;32;92230;-83
2021/07/02 07:35:45;;;;;;;1.85;1.55;;;;;;;23.84;48.28;99672.34;4493513;31;80857;-82
2021/07/02 07:38:24;;;;;;;1.98;1.75;;;;;;;24.09;47.38;99669.19;4477396;32;91295;-82
2021/07/02 07:41:02;;;;;;;3.03;1.70;;;;;;;24.10;48.25;99661.09;4479835;32;92794;-82
2021/07/02 07:43:41;;;;;;;4.45;2.22;;;;;;;24.15;47.90;99650.25;4482361;31;96957;-82
2021/07/02 07:46:20;;;;;;;2.30;1.75;;;;;;;24.09;48.48;99650.59;4486187;32;91871;-82
2021/07/02 07:48:58;;;;;;;3.60;1.70;;;;;;;24.28;47.47;99647.72;4512147;31;48457;-82
2021/07/02 07:51:44;;;;;;;3.05;1.50;;;;;;;24.41;47.30;99644.25;4483038;32;98772;-82
2021/07/02 07:54:22;;;;;;;2.80;1.25;;;;;;;24.20;47.46;99645.50;4477999;32;93178;-81
2021/07/02 07:57:00;;;;;;;2.45;1.65;;;;;;;24.49;46.17;99639.34;4480846;32;88754;-81
2021/07/02 07:59:40;;;;;;;2.37;1.48;;;;;;;24.15;46.22;99648.41;4482894;32;94603;-82
2021/07/02 08:02:19;;;;;;;4.03;1.52;;;;;;;24.36;45.42;99651.66;4476643;32;94130;-82
2021/07/02 08:04:58;;;;;;;2.65;1.45;;;;;;;24.48;45.53;99650.94;4486807;32;102345;-82
2021/07/02 08:07:38;;;;;;;2.10;1.40;;;;;;;24.36;44.95;99664.94;4480446;32;91776;-82
2021/07/02 08:10:17;;;;;;;3.10;1.25;;;;;;;24.68;45.26;99661.22;4486190;32;92640;-83
2021/07/02 08:12:56;;;;;;;3.08;1.50;;;;;;;24.50;45.47;99659.66;4486761;32;102447;-83
2021/07/02 08:15:35;;;;;;;4.20;1.70;;;;;;;24.71;44.17;99661.03;4486318;32;89051;-82
2021/07/02 08:18:13;;;;;;;2.97;1.62;;;;;;;24.75;44.87;99665.22;4479210;32;92853;-82
2021/07/02 08:20:52;;;;;;;2.28;1.25;;;;;;;24.96;45.06;99672.91;4481252;32;102024;-82
2021/07/02 08:23:30;;;;;;;1.55;1.20;;;;;;;24.98;43.29;99658.56;4477297;32;92484;-82
2021/07/02 08:26:09;;;;;;;1.30;1.20;;;;;;;24.90;43.24;99666.13;4479997;32;90999;-81
2021/07/02 08:31:32;;;;;;;1.80;1.10;;;;;;;24.68;43.90;99669.19;4491718;32;88623;-81
2021/07/02 08:34:11;;;;;;;4.25;1.52;;;;;;;24.82;43.78;99669.25;4486427;31;86855;-81
2021/07/02 08:36:50;;;;;;;2.33;1.30;;;;;;;25.19;43.77;99675.00;4477636;32;234943;-81
2021/07/02 08:39:30;;;;;;;2.25;1.25;;;;;;;25.19;42.55;99667.00;4477154;32;94243;-82
2021/07/02 08:42:09;;;;;;;4.30;1.40;;;;;;;25.01;42.83;99669.00;4484874;32;90629;-81
2021/07/02 08:44:47;;;;;;;1.58;1.20;;;;;;;24.62;42.58;99674.91;4482221;32;90430;-82
2021/07/02 08:47:27;;;;;;;2.60;1.30;;;;;;;25.09;43.24;99663.19;4473150;32;124488;-81
2021/07/02 08:50:07;;;;;;;2.47;1.10;;;;;;;25.32;42.80;99658.16;4480498;32;93019;-81
2021/07/02 08:52:45;;;;;;;1.98;1.40;;;;;;;25.33;42.86;99669.66;4482318;31;96873;-82
2021/07/02 08:55:23;;;;;;;2.92;1.50;;;;;;;25.00;42.52;99667.28;4478016;32;88416;-81
2021/07/02 08:58:02;;;;;;;1.50;1.35;;;;;;;25.10;42.76;99673.78;4478594;32;111980;-81
2021/07/02 09:00:42;;;;;;;3.05;1.42;;;;;;;25.05;43.09;99665.22;4482814;32;95354;-82
2021/07/02 09:03:27;;;;;;;1.90;1.20;;;;;;;25.23;42.79;99653.41;4489775;31;102265;-81
2021/07/02 09:06:08;;;;;;;1.75;1.35;;;;;;;25.23;43.18;99660.53;4457688;32;802571;-81
2021/07/02 09:09:02;;;;;;;2.20;1.05;;;;;;;25.07;42.96;99662.44;4493157;31;91260;-81
2021/07/02 09:11:40;;;;;;;3.83;1.10;;;;;;;25.12;43.53;99660.38;4481609;32;89480;-81
2021/07/02 09:14:26;;;;;;;3.33;1.27;;;;;;;25.03;43.56;99658.28;4493062;31;84032;-82
2021/07/02 09:17:11;;;;;;;3.00;1.10;;;;;;;25.03;42.93;99658.28;4480321;32;91252;-80
2021/07/02 09:20:01;;;;;;;1.52;1.27;;;;;;;24.93;42.52;99657.13;4482150;32;89453;-80
2021/07/02 09:22:52;;;;;;;3.47;1.33;;;;;;;25.07;43.02;99650.00;4489415;32;98407;-82
2021/07/02 09:25:33;;;;;;;5.40;1.62;;;;;;;25.57;42.52;99651.34;4490039;32;97809;-82
2021/07/02 09:28:12;;;;;;;2.30;1.58;;;;;;;25.91;42.62;99646.38;4492895;31;91766;-82
2021/07/02 09:30:52;;;;;;;3.87;1.10;;;;;;;26.02;41.92;99646.56;4450871;31;1092837;-81
2021/07/02 09:33:31;;;;;;;2.55;1.10;;;;;;;25.68;42.45;99646.16;4473117;31;38631;-81
2021/07/02 09:36:17;;;;;;;3.45;1.30;;;;;;;26.06;40.84;99648.06;4479432;32;92370;-80
2021/07/02 09:38:55;;;;;;;1.87;1.10;;;;;;;26.34;41.17;99639.09;4494342;31;166538;-82
2021/07/02 09:41:34;;;;;;;4.35;1.40;;;;;;;26.42;40.62;99635.91;4515009;31;43831;-82
2021/07/02 09:44:12;;;;;;;6.45;1.20;;;;;;;26.56;40.53;99641.16;4477600;32;96338;-82
2021/07/02 09:46:51;;;;;;;3.42;1.00;;;;;;;26.45;40.47;99633.91;4480493;32;88865;-81
2021/07/02 09:49:26;;;;;;;2.97;1.17;;;;;;;26.45;40.47;99633.91;4464556;32;33231;-81
2021/07/02 09:52:09;;;;;;;1.73;0.90;;;;;;;25.98;39.84;99641.53;4465536;32;34063;-82
2021/07/02 09:54:37;;;;;;;5.65;1.25;;;;;;;25.91;41.37;99635.72;4466093;32;34782;-81
2021/07/02 09:57:18;;;;;;;2.87;0.93;;;;;;;25.72;41.18;99639.69;4466137;32;34089;-80
2021/07/02 10:00:10;;;;;;;1.33;0.80;;;;;;;25.63;40.75;99635.81;4478901;32;34216;-81
2021/07/02 10:02:55;;;;;;;2.47;0.80;;;;;;;25.30;41.51;99629.94;4474823;32;34894;-81
2021/07/02 10:05:25;;;;;;;1.75;1.10;;;;;;;25.30;41.74;99629.94;4462818;32;34595;-80
2021/07/02 10:08:03;;;;;;;3.33;1.05;;;;;;;25.48;41.91;99620.81;4450501;32;34058;-80
2021/07/02 10:10:31;;;;;;;4.03;1.02;;;;;;;25.90;40.38;99623.38;4464384;32;33464;-80
2021/07/02 10:12:59;;;;;;;2.33;0.80;;;;;;;26.31;39.85;99622.47;4450473;32;34223;-80
2021/07/02 10:15:27;;;;;;;2.78;0.93;;;;;;;26.10;39.96;99622.06;4464182;32;34316;-81
2021/07/02 10:17:57;;;;;;;4.37;0.70;;;;;;;25.85;39.39;99630.81;4463320;32;34008;-80
2021/07/02 10:20:26;;;;;;;1.08;0.70;;;;;;;25.62;39.14;99620.81;4449400;32;32421;-80
2021/07/02 10:22:56;;;;;;;3.78;1.30;;;;;;;25.83;39.82;99616.75;4462988;32;34091;-81
2021/07/02 10:25:30;;;;;;;0.98;0.88;;;;;;;26.01;38.18;99610.19;4466106;32;35385;-81
2021/07/02 10:27:58;;;;;;;1.20;0.70;;;;;;;26.47;39.03;99618.66;4460626;32;33656;-81
2021/07/02 10:30:26;;;;;;;2.47;0.80;;;;;;;26.54;39.05;99622.63;4465090;32;33470;-80
2021/07/02 10:32:57;;;;;;;1.52;0.80;;;;;;;26.54;38.20;99619.09;4454561;32;33903;-81
2021/07/02 10:35:28;;;;;;;1.00;0.65;;;;;;;26.62;38.92;99616.75;4476113;32;34450;-81
2021/07/02 10:37:57;;;;;;;7.97;0.80;;;;;;;26.60;37.72;99616.03;4469588;32;34038;-82
2021/07/02 10:40:41;;;;;;;2.78;0.60;;;;;;;26.51;36.78;99609.47;4479241;32;33397;-81
2021/07/02 10:43:17;;;;;;;2.00;0.60;;;;;;;26.65;36.61;99600.53;4474511;32;33931;-81
2021/07/02 10:46:13;;;;;;;1.33;0.77;;;;;;;26.69;36.94;99604.72;4463771;32;34630;-80
2021/07/02 10:48:59;;;;;;;1.65;0.90;;;;;;;27.26;36.95;99603.31;4473293;32;33776;-80
2021/07/02 10:51:34;;;;;;;2.92;0.85;;;;;;;27.02;36.57;99594.38;4469976;32;33578;-80
2021/07/02 10:54:11;;;;;;;1.42;0.80;;;;;;;27.08;36.67;99593.94;4470221;32;33942;-81
2021/07/02 10:56:44;;;;;;;4.00;0.90;;;;;;;27.60;35.72;99593.72;4469838;32;34689;-82
2021/07/02 10:59:12;;;;;;;0.73;0.60;;;;;;;27.00;36.46;99590.97;4468651;32;34748;-82
2021/07/02 11:02:04;;;;;;;4.03;0.80;;;;;;;26.98;36.76;99589.37;4460265;32;33228;-82
2021/07/02 11:04:42;;;;;;;1.33;0.80;;;;;;;26.68;36.48;99601.19;4467561;32;34602;-82
2021/07/02 11:07:22;;;;;;;0.77;0.77;;;;;;;26.25;37.18;99596.19;4458101;32;35408;-82
2021/07/02 11:09:50;;;;;;;0.80;0.60;;;;;;;26.15;38.37;99599.50;4458175;32;34832;-82
2021/07/02 11:12:28;;;;;;;3.33;0.70;;;;;;;26.13;38.15;99595.22;4463013;32;32727;-81
2021/07/02 11:14:56;;;;;;;2.53;0.77;;;;;;;26.05;37.55;99589.53;4462986;32;33962;-82
2021/07/02 11:17:29;;;;;;;1.92;0.82;;;;;;;26.01;38.54;99596.00;4468753;32;34655;-82
2021/07/02 11:20:22;;;;;;;2.15;0.70;;;;;;;25.94;37.71;99584.91;4469330;32;34026;-83
2021/07/02 11:22:58;;;;;;;1.70;0.65;;;;;;;26.02;37.06;99584.41;4462121;32;33402;-82
2021/07/02 11:25:33;;;;;;;2.00;0.80;;;;;;;25.87;37.83;99575.59;4469519;32;34752;-82
2021/07/02 11:28:16;;;;;;;1.52;0.70;;;;;;;25.85;37.61;99574.84;4456244;32;34928;-83
2021/07/02 11:30:46;;;;;;;2.00;0.80;;;;;;;26.26;37.07;99584.59;4470711;32;34060;-83
2021/07/02 11:33:17;;;;;;;2.45;0.82;;;;;;;26.51;36.86;99572.16;4469525;32;34189;-83
2021/07/02 11:35:56;;;;;;;2.03;0.60;;;;;;;26.60;37.61;99589.34;4469542;32;33920;-83
2021/07/02 11:38:25;;;;;;;2.87;0.70;;;;;;;26.47;36.92;99581.31;4469228;32;34590;-83
2021/07/02 11:41:00;;;;;;;0.60;0.55;;;;;;;26.65;36.16;99579.19;4468592;32;33768;-83
2021/07/02 11:43:36;;;;;;;1.48;0.65;;;;;;;26.60;37.07;99563.50;4455616;32;32556;-82
2021/07/02 11:46:30;;;;;;;3.05;1.00;;;;;;;26.86;36.88;99575.09;4468563;32;34406;-82
2021/07/02 11:48:59;;;;;;;3.08;0.80;;;;;;;27.20;36.71;99566.37;4466572;32;35415;-82
2021/07/02 11:51:31;;;;;;;0.88;0.70;;;;;;;27.57;35.44;99569.06;4468747;32;34957;-83
2021/07/02 11:54:03;;;;;;;2.42;0.70;;;;;;;27.40;33.77;99571.16;4469459;32;34209;-83
2021/07/02 11:56:35;;;;;;;1.48;0.70;;;;;;;27.29;35.59;99567.53;4455968;32;33445;-83
2021/07/02 11:59:04;;;;;;;;;;;;;;;27.36;35.12;99563.47;4470219;32;34563;-83
2021/07/02 12:01:39;;;;;;;2.35;0.65;;;;;;;27.28;34.87;99561.34;4469246;32;34049;-83
2021/07/02 12:04:32;;;;;;;4.57;0.80;;;;;;;26.91;35.92;99564.91;4458955;32;33004;-83
2021/07/02 12:07:06;;;;;;;4.78;0.70;;;;;;;26.88;35.92;99567.81;4456050;32;33574;-83
2021/07/02 12:09:39;;;;;;;6.07;0.80;;;;;;;27.09;36.52;99568.09;4468401;32;34680;-82
2021/07/02 12:12:07;;;;;;;2.08;0.70;;;;;;;27.33;36.49;99561.00;4455409;32;34285;-82
2021/07/02 12:14:37;;;;;;;2.47;0.70;;;;;;;27.61;36.02;99565.22;4468166;32;34200;-81
2021/07/02 12:17:05;;;;;;;4.55;0.70;;;;;;;27.75;35.43;99557.03;4468330;32;34315;-82
2021/07/02 12:19:37;;;;;;;1.85;0.77;;;;;;;28.02;34.94;99547.84;4469428;32;34572;-82
2021/07/02 12:22:11;;;;;;;1.95;0.60;;;;;;;27.99;35.13;99548.06;4468296;32;34495;-83
2021/07/02 12:24:40;;;;;;;0.70;0.57;;;;;;;27.76;35.08;99554.25;4455677;32;33298;-83
2021/07/02 12:27:13;;;;;;;0.95;0.60;;;;;;;27.45;34.83;99542.31;4469330;32;34042;-82